sensor_id;sensor_type;location;lat;lon;timestamp;temperature;humidity
55369;DHT22;41247;49.736;8.752;2023-06-19T00:01:59;21.40;99.90
55369;DHT22;41247;49.736;8.752;2023-06-19T00:05:40;21.30;99.90
55369;DHT22;41247;49.736;8.752;2023-06-19T00:09:21;21.30;99.90
55369;DHT22;41247;49.736;8.752;2023-06-19T00:13:02;21.30;99.90
55369;DHT22;41247;49.736;8.752;2023-06-19T00:16:43;21.30;99.90
55369;DHT22;41247;49.736;8.752;2023-06-19T00:20:24;21.20;99.90
55369;DHT22;41247;49.736;8.752;2023-06-19T00:24:06;21.20;99.90
55369;DHT22;41247;49.736;8.752;2023-06-19T00:27:47;21.10;99.90
55369;DHT22;41247;49.736;8.752;2023-06-19T00:31:27;20.90;99.90
55369;DHT22;41247;49.736;8.752;2023-06-19T00:35:08;20.80;99.90
55369;DHT22;41247;49.736;8.752;2023-06-19T00:38:48;20.70;99.90
55369;DHT22;41247;49.736;8.752;2023-06-19T00:42:29;20.50;99.90
55369;DHT22;41247;49.736;8.752;2023-06-19T00:46:11;20.40;99.90
55369;DHT22;41247;49.736;8.752;2023-06-19T00:49:52;20.30;99.90
55369;DHT22;41247;49.736;8.752;2023-06-19T00:53:33;20.10;99.90
55369;DHT22;41247;49.736;8.752;2023-06-19T00:57:13;20.00;99.90
55369;DHT22;41247;49.736;8.752;2023-06-19T01:00:55;20.00;99.90
55369;DHT22;41247;49.736;8.752;2023-06-19T01:04:35;20.10;99.90
55369;DHT22;41247;49.736;8.752;2023-06-19T01:12:28;20.40;99.90
55369;DHT22;41247;49.736;8.752;2023-06-19T01:16:13;20.60;99.90
55369;DHT22;41247;49.736;8.752;2023-06-19T01:19:55;20.80;99.90
55369;DHT22;41247;49.736;8.752;2023-06-19T01:23:36;20.90;99.90
55369;DHT22;41247;49.736;8.752;2023-06-19T01:27:17;21.00;99.90
55369;DHT22;41247;49.736;8.752;2023-06-19T01:31:00;21.20;99.90
55369;DHT22;41247;49.736;8.752;2023-06-19T01:34:42;21.30;99.90
55369;DHT22;41247;49.736;8.752;2023-06-19T01:38:25;21.40;99.90
55369;DHT22;41247;49.736;8.752;2023-06-19T01:42:06;21.40;99.90
55369;DHT22;41247;49.736;8.752;2023-06-19T01:45:47;21.40;99.90
55369;DHT22;41247;49.736;8.752;2023-06-19T01:49:28;21.30;99.90
55369;DHT22;41247;49.736;8.752;2023-06-19T01:53:08;21.20;99.90
55369;DHT22;41247;49.736;8.752;2023-06-19T01:56:49;21.20;99.90
55369;DHT22;41247;49.736;8.752;2023-06-19T02:00:29;21.20;99.90
55369;DHT22;41247;49.736;8.752;2023-06-19T02:04:10;21.30;99.90
55369;DHT22;41247;49.736;8.752;2023-06-19T02:07:51;21.30;99.90
55369;DHT22;41247;49.736;8.752;2023-06-19T02:11:31;21.30;99.90
55369;DHT22;41247;49.736;8.752;2023-06-19T02:15:12;21.20;99.90
55369;DHT22;41247;49.736;8.752;2023-06-19T02:18:52;21.00;99.90
55369;DHT22;41247;49.736;8.752;2023-06-19T02:22:38;20.90;99.90
55369;DHT22;41247;49.736;8.752;2023-06-19T02:26:19;20.80;99.90
55369;DHT22;41247;49.736;8.752;2023-06-19T02:30:00;20.70;99.90
55369;DHT22;41247;49.736;8.752;2023-06-19T02:33:40;20.60;99.90
55369;DHT22;41247;49.736;8.752;2023-06-19T02:37:21;20.50;99.90
55369;DHT22;41247;49.736;8.752;2023-06-19T02:41:01;20.50;99.90
55369;DHT22;41247;49.736;8.752;2023-06-19T02:44:42;20.40;99.90
55369;DHT22;41247;49.736;8.752;2023-06-19T02:48:23;20.40;99.90
55369;DHT22;41247;49.736;8.752;2023-06-19T02:52:04;20.40;99.90
55369;DHT22;41247;49.736;8.752;2023-06-19T02:55:45;20.40;99.90
55369;DHT22;41247;49.736;8.752;2023-06-19T02:59:26;20.40;99.90
55369;DHT22;41247;49.736;8.752;2023-06-19T03:03:06;20.40;99.90
55369;DHT22;41247;49.736;8.752;2023-06-19T03:06:47;20.40;99.90
55369;DHT22;41247;49.736;8.752;2023-06-19T03:10:27;20.40;99.90
55369;DHT22;41247;49.736;8.752;2023-06-19T03:14:08;20.40;99.90
55369;DHT22;41247;49.736;8.752;2023-06-19T03:17:48;20.40;99.90
55369;DHT22;41247;49.736;8.752;2023-06-19T03:21:29;20.40;99.90
55369;DHT22;41247;49.736;8.752;2023-06-19T03:25:10;20.50;99.90
55369;DHT22;41247;49.736;8.752;2023-06-19T03:28:50;20.50;99.90
55369;DHT22;41247;49.736;8.752;2023-06-19T03:32:32;20.60;99.90
55369;DHT22;41247;49.736;8.752;2023-06-19T03:36:13;20.60;99.90
55369;DHT22;41247;49.736;8.752;2023-06-19T03:39:53;20.60;99.90
55369;DHT22;41247;49.736;8.752;2023-06-19T03:43:34;20.60;99.90
55369;DHT22;41247;49.736;8.752;2023-06-19T03:47:14;20.60;99.90
55369;DHT22;41247;49.736;8.752;2023-06-19T03:50:55;20.60;99.90
55369;DHT22;41247;49.736;8.752;2023-06-19T03:54:36;20.50;99.90
55369;DHT22;41247;49.736;8.752;2023-06-19T03:58:16;20.50;99.90
55369;DHT22;41247;49.736;8.752;2023-06-19T04:01:57;20.50;99.90
55369;DHT22;41247;49.736;8.752;2023-06-19T04:05:37;20.50;99.90
55369;DHT22;41247;49.736;8.752;2023-06-19T04:09:18;20.50;99.90
55369;DHT22;41247;49.736;8.752;2023-06-19T04:12:59;20.50;99.90
55369;DHT22;41247;49.736;8.752;2023-06-19T04:16:39;20.50;99.90
55369;DHT22;41247;49.736;8.752;2023-06-19T04:20:20;20.50;99.90
55369;DHT22;41247;49.736;8.752;2023-06-19T04:24:00;20.50;99.90
55369;DHT22;41247;49.736;8.752;2023-06-19T04:27:41;20.50;99.90
55369;DHT22;41247;49.736;8.752;2023-06-19T04:31:22;20.50;99.90
55369;DHT22;41247;49.736;8.752;2023-06-19T04:35:02;20.50;99.90
55369;DHT22;41247;49.736;8.752;2023-06-19T04:38:45;20.50;99.90
55369;DHT22;41247;49.736;8.752;2023-06-19T04:42:25;20.60;99.90
55369;DHT22;41247;49.736;8.752;2023-06-19T04:46:07;20.60;99.90
55369;DHT22;41247;49.736;8.752;2023-06-19T04:49:47;20.60;99.90
55369;DHT22;41247;49.736;8.752;2023-06-19T04:53:28;20.70;99.90
55369;DHT22;41247;49.736;8.752;2023-06-19T04:57:09;20.60;99.90
55369;DHT22;41247;49.736;8.752;2023-06-19T05:00:49;20.60;99.90
55369;DHT22;41247;49.736;8.752;2023-06-19T05:04:30;20.50;99.90
55369;DHT22;41247;49.736;8.752;2023-06-19T05:08:12;20.50;99.90
55369;DHT22;41247;49.736;8.752;2023-06-19T05:11:53;20.50;99.90
55369;DHT22;41247;49.736;8.752;2023-06-19T05:15:34;20.50;99.90
55369;DHT22;41247;49.736;8.752;2023-06-19T05:19:14;20.50;99.90
55369;DHT22;41247;49.736;8.752;2023-06-19T05:22:57;20.50;99.90
55369;DHT22;41247;49.736;8.752;2023-06-19T05:26:38;20.50;99.90
55369;DHT22;41247;49.736;8.752;2023-06-19T05:40:20;20.70;99.90
55369;DHT22;41247;49.736;8.752;2023-06-19T05:44:08;20.80;99.90
55369;DHT22;41247;49.736;8.752;2023-06-19T05:48:10;20.80;99.90
55369;DHT22;41247;49.736;8.752;2023-06-19T05:52:23;20.90;99.90
55369;DHT22;41247;49.736;8.752;2023-06-19T05:56:52;20.90;99.90
55369;DHT22;41247;49.736;8.752;2023-06-19T06:00:33;20.90;99.90
55369;DHT22;41247;49.736;8.752;2023-06-19T06:04:32;20.90;99.90
55369;DHT22;41247;49.736;8.752;2023-06-19T06:08:13;21.00;99.90
55369;DHT22;41247;49.736;8.752;2023-06-19T06:12:11;21.10;99.90
55369;DHT22;41247;49.736;8.752;2023-06-19T06:20:50;21.30;99.90
55369;DHT22;41247;49.736;8.752;2023-06-19T06:24:31;21.40;99.90
55369;DHT22;41247;49.736;8.752;2023-06-19T06:28:12;21.40;99.90
55369;DHT22;41247;49.736;8.752;2023-06-19T06:32:03;21.40;99.90
55369;DHT22;41247;49.736;8.752;2023-06-19T06:35:45;21.40;99.90
55369;DHT22;41247;49.736;8.752;2023-06-19T06:39:26;21.40;99.90
55369;DHT22;41247;49.736;8.752;2023-06-19T06:43:07;21.40;99.90
55369;DHT22;41247;49.736;8.752;2023-06-19T06:46:47;21.50;99.90
55369;DHT22;41247;49.736;8.752;2023-06-19T06:50:28;21.70;99.90
55369;DHT22;41247;49.736;8.752;2023-06-19T06:54:10;21.70;99.90
55369;DHT22;41247;49.736;8.752;2023-06-19T06:57:51;21.90;99.90
55369;DHT22;41247;49.736;8.752;2023-06-19T07:01:32;22.00;99.90
55369;DHT22;41247;49.736;8.752;2023-06-19T07:05:12;22.10;99.90
55369;DHT22;41247;49.736;8.752;2023-06-19T07:08:53;22.30;99.90
55369;DHT22;41247;49.736;8.752;2023-06-19T07:12:33;22.50;99.90
55369;DHT22;41247;49.736;8.752;2023-06-19T07:16:14;22.60;99.90
55369;DHT22;41247;49.736;8.752;2023-06-19T07:19:55;22.90;99.90
55369;DHT22;41247;49.736;8.752;2023-06-19T07:23:35;23.10;99.90
55369;DHT22;41247;49.736;8.752;2023-06-19T07:27:16;23.40;99.90
55369;DHT22;41247;49.736;8.752;2023-06-19T07:30:56;23.50;99.90
55369;DHT22;41247;49.736;8.752;2023-06-19T07:34:37;23.60;99.90
55369;DHT22;41247;49.736;8.752;2023-06-19T07:38:18;23.60;99.90
55369;DHT22;41247;49.736;8.752;2023-06-19T07:41:58;23.60;99.90
55369;DHT22;41247;49.736;8.752;2023-06-19T07:45:39;23.60;99.90
55369;DHT22;41247;49.736;8.752;2023-06-19T07:49:19;23.70;99.90
55369;DHT22;41247;49.736;8.752;2023-06-19T07:53:00;23.90;99.90
55369;DHT22;41247;49.736;8.752;2023-06-19T07:56:40;24.00;99.90
55369;DHT22;41247;49.736;8.752;2023-06-19T08:00:21;24.00;99.90
55369;DHT22;41247;49.736;8.752;2023-06-19T08:04:02;24.00;99.90
55369;DHT22;41247;49.736;8.752;2023-06-19T08:07:42;23.90;99.90
55369;DHT22;41247;49.736;8.752;2023-06-19T08:11:24;23.80;99.90
55369;DHT22;41247;49.736;8.752;2023-06-19T08:15:06;24.20;99.90
55369;DHT22;41247;49.736;8.752;2023-06-19T08:18:54;24.30;99.90
55369;DHT22;41247;49.736;8.752;2023-06-19T08:22:35;24.30;99.90
55369;DHT22;41247;49.736;8.752;2023-06-19T08:26:16;24.60;99.90
55369;DHT22;41247;49.736;8.752;2023-06-19T08:29:56;24.80;99.90
55369;DHT22;41247;49.736;8.752;2023-06-19T08:33:37;24.90;99.90
55369;DHT22;41247;49.736;8.752;2023-06-19T08:37:18;25.10;99.90
55369;DHT22;41247;49.736;8.752;2023-06-19T08:40:58;25.10;99.90
55369;DHT22;41247;49.736;8.752;2023-06-19T08:44:39;24.70;99.90
55369;DHT22;41247;49.736;8.752;2023-06-19T08:48:20;24.80;99.90
55369;DHT22;41247;49.736;8.752;2023-06-19T08:52:03;25.00;99.90
55369;DHT22;41247;49.736;8.752;2023-06-19T08:55:43;25.10;99.90
55369;DHT22;41247;49.736;8.752;2023-06-19T08:59:26;25.10;99.90
55369;DHT22;41247;49.736;8.752;2023-06-19T09:03:06;25.40;99.90
55369;DHT22;41247;49.736;8.752;2023-06-19T09:10:38;25.80;99.90
55369;DHT22;41247;49.736;8.752;2023-06-19T09:14:19;26.00;99.90
55369;DHT22;41247;49.736;8.752;2023-06-19T09:18:09;26.10;99.90
55369;DHT22;41247;49.736;8.752;2023-06-19T09:21:51;26.10;99.90
55369;DHT22;41247;49.736;8.752;2023-06-19T09:25:47;25.80;99.90
55369;DHT22;41247;49.736;8.752;2023-06-19T09:29:29;25.70;99.90
55369;DHT22;41247;49.736;8.752;2023-06-19T09:33:09;25.30;99.90
55369;DHT22;41247;49.736;8.752;2023-06-19T09:36:56;25.10;99.90
55369;DHT22;41247;49.736;8.752;2023-06-19T09:40:37;24.90;99.90
55369;DHT22;41247;49.736;8.752;2023-06-19T09:44:19;24.70;99.90
55369;DHT22;41247;49.736;8.752;2023-06-19T09:48:00;24.50;99.90
55369;DHT22;41247;49.736;8.752;2023-06-19T09:51:41;24.70;99.90
55369;DHT22;41247;49.736;8.752;2023-06-19T09:55:27;25.20;99.90
55369;DHT22;41247;49.736;8.752;2023-06-19T09:59:09;25.70;99.90
55369;DHT22;41247;49.736;8.752;2023-06-19T10:02:50;25.90;99.90
55369;DHT22;41247;49.736;8.752;2023-06-19T10:06:30;25.80;99.90
55369;DHT22;41247;49.736;8.752;2023-06-19T10:10:22;25.40;99.90
55369;DHT22;41247;49.736;8.752;2023-06-19T10:14:07;25.60;99.90
55369;DHT22;41247;49.736;8.752;2023-06-19T10:17:49;25.70;99.90
55369;DHT22;41247;49.736;8.752;2023-06-19T10:21:47;25.70;99.90
55369;DHT22;41247;49.736;8.752;2023-06-19T10:25:33;26.00;99.90
55369;DHT22;41247;49.736;8.752;2023-06-19T10:29:16;26.70;99.90
55369;DHT22;41247;49.736;8.752;2023-06-19T10:32:57;26.80;99.90
55369;DHT22;41247;49.736;8.752;2023-06-19T10:36:37;26.90;99.90
55369;DHT22;41247;49.736;8.752;2023-06-19T10:40:18;26.80;99.90
55369;DHT22;41247;49.736;8.752;2023-06-19T10:44:01;27.30;99.90
55369;DHT22;41247;49.736;8.752;2023-06-19T10:47:44;27.70;99.90
55369;DHT22;41247;49.736;8.752;2023-06-19T10:51:24;27.60;99.90
55369;DHT22;41247;49.736;8.752;2023-06-19T10:55:05;27.30;99.90
55369;DHT22;41247;49.736;8.752;2023-06-19T10:58:46;27.20;99.90
55369;DHT22;41247;49.736;8.752;2023-06-19T11:02:27;27.40;99.90
55369;DHT22;41247;49.736;8.752;2023-06-19T11:06:07;27.60;99.90
55369;DHT22;41247;49.736;8.752;2023-06-19T11:09:51;27.80;99.90
55369;DHT22;41247;49.736;8.752;2023-06-19T11:13:32;27.80;99.90
55369;DHT22;41247;49.736;8.752;2023-06-19T11:17:12;27.70;99.90
55369;DHT22;41247;49.736;8.752;2023-06-19T11:20:53;27.80;99.90
55369;DHT22;41247;49.736;8.752;2023-06-19T11:24:34;27.80;99.90
55369;DHT22;41247;49.736;8.752;2023-06-19T11:28:15;27.70;99.90
55369;DHT22;41247;49.736;8.752;2023-06-19T11:32:12;27.80;99.90
55369;DHT22;41247;49.736;8.752;2023-06-19T11:35:54;28.10;99.90
55369;DHT22;41247;49.736;8.752;2023-06-19T11:39:41;28.20;99.90
55369;DHT22;41247;49.736;8.752;2023-06-19T11:47:06;28.90;99.90
55369;DHT22;41247;49.736;8.752;2023-06-19T11:50:47;29.40;99.90
55369;DHT22;41247;49.736;8.752;2023-06-19T11:54:27;29.40;99.90
55369;DHT22;41247;49.736;8.752;2023-06-19T11:58:08;29.20;99.90
55369;DHT22;41247;49.736;8.752;2023-06-19T12:01:48;29.10;99.90
55369;DHT22;41247;49.736;8.752;2023-06-19T12:05:34;29.40;99.90
55369;DHT22;41247;49.736;8.752;2023-06-19T12:09:15;29.60;99.90
55369;DHT22;41247;49.736;8.752;2023-06-19T12:12:55;29.80;99.90
55369;DHT22;41247;49.736;8.752;2023-06-19T12:16:36;29.90;99.90
55369;DHT22;41247;49.736;8.752;2023-06-19T12:20:16;29.80;99.90
55369;DHT22;41247;49.736;8.752;2023-06-19T12:23:57;29.60;99.90
55369;DHT22;41247;49.736;8.752;2023-06-19T12:27:38;30.10;99.90
55369;DHT22;41247;49.736;8.752;2023-06-19T12:31:19;30.30;99.90
55369;DHT22;41247;49.736;8.752;2023-06-19T12:34:59;30.20;99.90
55369;DHT22;41247;49.736;8.752;2023-06-19T12:38:40;30.10;99.90
55369;DHT22;41247;49.736;8.752;2023-06-19T12:42:21;30.10;99.90
55369;DHT22;41247;49.736;8.752;2023-06-19T12:46:02;30.30;99.90
55369;DHT22;41247;49.736;8.752;2023-06-19T12:49:42;30.10;99.90
55369;DHT22;41247;49.736;8.752;2023-06-19T12:53:23;29.70;99.90
55369;DHT22;41247;49.736;8.752;2023-06-19T12:57:04;29.20;99.90
55369;DHT22;41247;49.736;8.752;2023-06-19T13:00:44;29.10;99.90
55369;DHT22;41247;49.736;8.752;2023-06-19T13:04:25;29.40;99.90
55369;DHT22;41247;49.736;8.752;2023-06-19T13:08:06;29.90;99.90
55369;DHT22;41247;49.736;8.752;2023-06-19T13:11:46;30.20;99.90
55369;DHT22;41247;49.736;8.752;2023-06-19T13:15:27;30.30;99.90
55369;DHT22;41247;49.736;8.752;2023-06-19T13:19:07;30.30;99.90
55369;DHT22;41247;49.736;8.752;2023-06-19T13:22:49;29.90;99.90
55369;DHT22;41247;49.736;8.752;2023-06-19T13:26:32;29.70;99.90
55369;DHT22;41247;49.736;8.752;2023-06-19T13:30:13;29.80;99.90
55369;DHT22;41247;49.736;8.752;2023-06-19T13:33:53;30.20;99.90
55369;DHT22;41247;49.736;8.752;2023-06-19T13:37:36;30.40;99.90
55369;DHT22;41247;49.736;8.752;2023-06-19T13:41:20;30.60;99.90
55369;DHT22;41247;49.736;8.752;2023-06-19T13:45:02;30.90;99.90
55369;DHT22;41247;49.736;8.752;2023-06-19T13:48:43;31.10;99.90
55369;DHT22;41247;49.736;8.752;2023-06-19T13:52:23;31.40;99.90
55369;DHT22;41247;49.736;8.752;2023-06-19T13:56:04;31.90;99.90
55369;DHT22;41247;49.736;8.752;2023-06-19T13:59:44;32.20;99.90
55369;DHT22;41247;49.736;8.752;2023-06-19T14:03:25;32.40;99.90
55369;DHT22;41247;49.736;8.752;2023-06-19T14:07:07;32.20;99.90
55369;DHT22;41247;49.736;8.752;2023-06-19T14:10:47;32.20;99.90
55369;DHT22;41247;49.736;8.752;2023-06-19T14:14:28;32.40;99.90
55369;DHT22;41247;49.736;8.752;2023-06-19T14:18:09;32.20;99.90
55369;DHT22;41247;49.736;8.752;2023-06-19T14:21:49;32.30;99.90
55369;DHT22;41247;49.736;8.752;2023-06-19T14:25:31;32.10;99.90
55369;DHT22;41247;49.736;8.752;2023-06-19T14:29:11;31.70;99.90
55369;DHT22;41247;49.736;8.752;2023-06-19T14:32:52;31.20;99.90
55369;DHT22;41247;49.736;8.752;2023-06-19T14:36:32;30.60;99.90
55369;DHT22;41247;49.736;8.752;2023-06-19T14:40:13;30.30;99.90
55369;DHT22;41247;49.736;8.752;2023-06-19T14:43:54;30.00;99.90
55369;DHT22;41247;49.736;8.752;2023-06-19T14:47:34;30.70;99.90
55369;DHT22;41247;49.736;8.752;2023-06-19T14:51:15;31.50;99.90
55369;DHT22;41247;49.736;8.752;2023-06-19T14:54:56;31.60;99.90
55369;DHT22;41247;49.736;8.752;2023-06-19T14:58:36;32.30;99.90
55369;DHT22;41247;49.736;8.752;2023-06-19T15:02:17;32.90;99.90
55369;DHT22;41247;49.736;8.752;2023-06-19T15:05:57;33.40;99.90
55369;DHT22;41247;49.736;8.752;2023-06-19T15:09:38;33.60;99.90
55369;DHT22;41247;49.736;8.752;2023-06-19T15:13:18;33.40;99.90
55369;DHT22;41247;49.736;8.752;2023-06-19T15:16:59;33.30;99.90
55369;DHT22;41247;49.736;8.752;2023-06-19T15:20:40;33.30;99.90
55369;DHT22;41247;49.736;8.752;2023-06-19T15:24:20;33.40;99.90
55369;DHT22;41247;49.736;8.752;2023-06-19T15:28:02;33.10;99.90
55369;DHT22;41247;49.736;8.752;2023-06-19T15:31:42;32.40;99.90
55369;DHT22;41247;49.736;8.752;2023-06-19T15:35:25;31.70;99.90
55369;DHT22;41247;49.736;8.752;2023-06-19T15:39:06;31.20;99.90
55369;DHT22;41247;49.736;8.752;2023-06-19T15:42:46;30.70;99.90
55369;DHT22;41247;49.736;8.752;2023-06-19T15:46:27;30.40;99.90
55369;DHT22;41247;49.736;8.752;2023-06-19T15:50:08;30.20;99.90
55369;DHT22;41247;49.736;8.752;2023-06-19T15:53:49;30.00;99.90
55369;DHT22;41247;49.736;8.752;2023-06-19T15:57:30;29.90;99.90
55369;DHT22;41247;49.736;8.752;2023-06-19T16:01:11;30.10;99.90
55369;DHT22;41247;49.736;8.752;2023-06-19T16:04:54;30.00;99.90
55369;DHT22;41247;49.736;8.752;2023-06-19T16:08:35;29.90;99.90
55369;DHT22;41247;49.736;8.752;2023-06-19T16:12:15;30.40;99.90
55369;DHT22;41247;49.736;8.752;2023-06-19T16:15:56;31.00;99.90
55369;DHT22;41247;49.736;8.752;2023-06-19T16:19:36;31.10;99.90
55369;DHT22;41247;49.736;8.752;2023-06-19T16:23:17;30.90;99.90
55369;DHT22;41247;49.736;8.752;2023-06-19T16:26:57;30.90;99.90
55369;DHT22;41247;49.736;8.752;2023-06-19T16:30:39;31.00;99.90
55369;DHT22;41247;49.736;8.752;2023-06-19T16:34:20;30.60;99.90
55369;DHT22;41247;49.736;8.752;2023-06-19T16:38:00;30.40;99.90
55369;DHT22;41247;49.736;8.752;2023-06-19T16:41:41;30.20;99.90
55369;DHT22;41247;49.736;8.752;2023-06-19T16:45:21;29.90;99.90
55369;DHT22;41247;49.736;8.752;2023-06-19T16:49:02;29.60;99.90
55369;DHT22;41247;49.736;8.752;2023-06-19T16:52:43;29.20;99.90
55369;DHT22;41247;49.736;8.752;2023-06-19T16:56:24;29.00;99.90
55369;DHT22;41247;49.736;8.752;2023-06-19T17:00:05;28.80;99.90
55369;DHT22;41247;49.736;8.752;2023-06-19T17:03:46;28.70;99.90
55369;DHT22;41247;49.736;8.752;2023-06-19T17:07:27;28.60;99.90
55369;DHT22;41247;49.736;8.752;2023-06-19T17:11:07;28.50;99.90
55369;DHT22;41247;49.736;8.752;2023-06-19T17:14:48;28.40;99.90
55369;DHT22;41247;49.736;8.752;2023-06-19T17:18:28;28.30;99.90
55369;DHT22;41247;49.736;8.752;2023-06-19T17:22:09;28.30;99.90
55369;DHT22;41247;49.736;8.752;2023-06-19T17:25:50;28.30;99.90
55369;DHT22;41247;49.736;8.752;2023-06-19T17:29:30;28.30;99.90
55369;DHT22;41247;49.736;8.752;2023-06-19T17:33:12;28.10;99.90
55369;DHT22;41247;49.736;8.752;2023-06-19T17:36:53;27.90;99.90
55369;DHT22;41247;49.736;8.752;2023-06-19T17:40:33;27.70;99.90
55369;DHT22;41247;49.736;8.752;2023-06-19T17:44:14;27.70;99.90
55369;DHT22;41247;49.736;8.752;2023-06-19T17:47:55;27.50;99.90
55369;DHT22;41247;49.736;8.752;2023-06-19T17:51:35;27.20;99.90
55369;DHT22;41247;49.736;8.752;2023-06-19T17:55:16;27.00;99.90
55369;DHT22;41247;49.736;8.752;2023-06-19T17:58:57;26.80;99.90
55369;DHT22;41247;49.736;8.752;2023-06-19T18:02:38;26.70;99.90
55369;DHT22;41247;49.736;8.752;2023-06-19T18:06:18;26.70;99.90
55369;DHT22;41247;49.736;8.752;2023-06-19T18:09:59;26.50;99.90
55369;DHT22;41247;49.736;8.752;2023-06-19T18:13:40;26.50;99.90
55369;DHT22;41247;49.736;8.752;2023-06-19T18:17:21;26.30;99.90
55369;DHT22;41247;49.736;8.752;2023-06-19T18:21:01;26.20;99.90
55369;DHT22;41247;49.736;8.752;2023-06-19T18:24:42;26.10;99.90
55369;DHT22;41247;49.736;8.752;2023-06-19T18:28:22;25.90;99.90
55369;DHT22;41247;49.736;8.752;2023-06-19T18:32:03;25.70;99.90
55369;DHT22;41247;49.736;8.752;2023-06-19T18:35:44;25.60;99.90
55369;DHT22;41247;49.736;8.752;2023-06-19T18:39:24;25.40;99.90
55369;DHT22;41247;49.736;8.752;2023-06-19T18:43:05;25.20;99.90
55369;DHT22;41247;49.736;8.752;2023-06-19T18:46:46;25.00;99.90
55369;DHT22;41247;49.736;8.752;2023-06-19T18:50:26;24.80;99.90
55369;DHT22;41247;49.736;8.752;2023-06-19T18:54:07;24.70;99.90
55369;DHT22;41247;49.736;8.752;2023-06-19T18:57:47;24.50;99.90
55369;DHT22;41247;49.736;8.752;2023-06-19T19:01:28;24.30;99.90
55369;DHT22;41247;49.736;8.752;2023-06-19T19:05:09;24.10;99.90
55369;DHT22;41247;49.736;8.752;2023-06-19T19:08:49;23.80;99.90
55369;DHT22;41247;49.736;8.752;2023-06-19T19:12:30;23.50;99.90
55369;DHT22;41247;49.736;8.752;2023-06-19T19:16:11;23.30;99.90
55369;DHT22;41247;49.736;8.752;2023-06-19T19:19:51;23.00;99.90
55369;DHT22;41247;49.736;8.752;2023-06-19T19:23:32;22.70;99.90
55369;DHT22;41247;49.736;8.752;2023-06-19T19:27:13;22.50;99.90
55369;DHT22;41247;49.736;8.752;2023-06-19T19:30:54;22.20;99.90
55369;DHT22;41247;49.736;8.752;2023-06-19T19:34:35;22.00;99.90
55369;DHT22;41247;49.736;8.752;2023-06-19T19:38:15;21.90;99.90
55369;DHT22;41247;49.736;8.752;2023-06-19T19:41:56;21.70;99.90
55369;DHT22;41247;49.736;8.752;2023-06-19T19:45:36;21.70;99.90
55369;DHT22;41247;49.736;8.752;2023-06-19T19:49:17;21.60;99.90
55369;DHT22;41247;49.736;8.752;2023-06-19T19:52:58;21.60;99.90
55369;DHT22;41247;49.736;8.752;2023-06-19T19:56:38;21.50;99.90
55369;DHT22;41247;49.736;8.752;2023-06-19T20:00:19;21.50;99.90
55369;DHT22;41247;49.736;8.752;2023-06-19T20:04:00;21.40;99.90
55369;DHT22;41247;49.736;8.752;2023-06-19T20:07:40;21.30;99.90
55369;DHT22;41247;49.736;8.752;2023-06-19T20:11:21;21.30;99.90
55369;DHT22;41247;49.736;8.752;2023-06-19T20:15:02;21.20;99.90
55369;DHT22;41247;49.736;8.752;2023-06-19T20:18:42;21.20;99.90
55369;DHT22;41247;49.736;8.752;2023-06-19T20:22:23;21.10;99.90
55369;DHT22;41247;49.736;8.752;2023-06-19T20:26:03;21.10;99.90
55369;DHT22;41247;49.736;8.752;2023-06-19T20:29:44;21.00;99.90
55369;DHT22;41247;49.736;8.752;2023-06-19T20:33:25;20.90;99.90
55369;DHT22;41247;49.736;8.752;2023-06-19T20:37:05;20.90;99.90
55369;DHT22;41247;49.736;8.752;2023-06-19T20:40:47;20.80;99.90
55369;DHT22;41247;49.736;8.752;2023-06-19T20:44:28;20.70;99.90
55369;DHT22;41247;49.736;8.752;2023-06-19T20:48:09;20.70;99.90
55369;DHT22;41247;49.736;8.752;2023-06-19T20:51:50;20.60;99.90
55369;DHT22;41247;49.736;8.752;2023-06-19T20:55:31;20.50;99.90
55369;DHT22;41247;49.736;8.752;2023-06-19T20:59:11;20.40;99.90
55369;DHT22;41247;49.736;8.752;2023-06-19T21:02:52;20.40;99.90
55369;DHT22;41247;49.736;8.752;2023-06-19T21:06:33;20.40;99.90
55369;DHT22;41247;49.736;8.752;2023-06-19T21:10:13;20.30;99.90
55369;DHT22;41247;49.736;8.752;2023-06-19T21:13:54;20.30;99.90
55369;DHT22;41247;49.736;8.752;2023-06-19T21:17:35;20.20;99.90
55369;DHT22;41247;49.736;8.752;2023-06-19T21:21:15;20.20;99.90
55369;DHT22;41247;49.736;8.752;2023-06-19T21:24:56;20.20;99.90
55369;DHT22;41247;49.736;8.752;2023-06-19T21:28:36;20.20;99.90
55369;DHT22;41247;49.736;8.752;2023-06-19T21:32:17;20.20;99.90
55369;DHT22;41247;49.736;8.752;2023-06-19T21:35:58;20.10;99.90
55369;DHT22;41247;49.736;8.752;2023-06-19T21:39:38;20.10;99.90
55369;DHT22;41247;49.736;8.752;2023-06-19T21:43:19;20.10;99.90
55369;DHT22;41247;49.736;8.752;2023-06-19T21:47:00;20.10;99.90
55369;DHT22;41247;49.736;8.752;2023-06-19T21:50:40;20.10;99.90
55369;DHT22;41247;49.736;8.752;2023-06-19T21:54:21;20.10;99.90
55369;DHT22;41247;49.736;8.752;2023-06-19T21:58:01;20.10;99.90
55369;DHT22;41247;49.736;8.752;2023-06-19T22:01:42;20.10;99.90
55369;DHT22;41247;49.736;8.752;2023-06-19T22:05:23;20.10;99.90
55369;DHT22;41247;49.736;8.752;2023-06-19T22:09:03;20.10;99.90
55369;DHT22;41247;49.736;8.752;2023-06-19T22:12:44;20.10;99.90
55369;DHT22;41247;49.736;8.752;2023-06-19T22:16:25;20.10;99.90
55369;DHT22;41247;49.736;8.752;2023-06-19T22:20:06;20.10;99.90
55369;DHT22;41247;49.736;8.752;2023-06-19T22:23:46;20.10;99.90
55369;DHT22;41247;49.736;8.752;2023-06-19T22:27:29;20.10;99.90
55369;DHT22;41247;49.736;8.752;2023-06-19T22:31:10;20.20;99.90
55369;DHT22;41247;49.736;8.752;2023-06-19T22:34:50;20.20;99.90
55369;DHT22;41247;49.736;8.752;2023-06-19T22:38:31;20.20;99.90
55369;DHT22;41247;49.736;8.752;2023-06-19T22:42:11;20.30;99.90
55369;DHT22;41247;49.736;8.752;2023-06-19T22:45:52;20.30;99.90
55369;DHT22;41247;49.736;8.752;2023-06-19T22:49:32;20.40;99.90
55369;DHT22;41247;49.736;8.752;2023-06-19T22:53:13;20.50;99.90
55369;DHT22;41247;49.736;8.752;2023-06-19T22:56:54;20.50;99.90
55369;DHT22;41247;49.736;8.752;2023-06-19T23:00:34;20.60;99.90
55369;DHT22;41247;49.736;8.752;2023-06-19T23:04:15;20.60;99.90
55369;DHT22;41247;49.736;8.752;2023-06-19T23:07:55;20.60;99.90
55369;DHT22;41247;49.736;8.752;2023-06-19T23:11:37;20.50;99.90
55369;DHT22;41247;49.736;8.752;2023-06-19T23:15:18;20.60;99.90
55369;DHT22;41247;49.736;8.752;2023-06-19T23:18:59;20.60;99.90
55369;DHT22;41247;49.736;8.752;2023-06-19T23:22:40;20.60;99.90
55369;DHT22;41247;49.736;8.752;2023-06-19T23:30:59;20.60;99.90
55369;DHT22;41247;49.736;8.752;2023-06-19T23:34:52;20.60;99.90
55369;DHT22;41247;49.736;8.752;2023-06-19T23:38:33;20.70;99.90
55369;DHT22;41247;49.736;8.752;2023-06-19T23:46:42;20.60;99.90
55369;DHT22;41247;49.736;8.752;2023-06-19T23:50:24;20.70;99.90
55369;DHT22;41247;49.736;8.752;2023-06-19T23:54:04;20.70;99.90